createdAt,value
2019-05-26T00:01:11.272Z,101163.59
2019-05-26T00:03:43.411Z,101153.78
2019-05-26T00:06:13.611Z,101152.41
2019-05-26T00:08:44.226Z,101149.74
2019-05-26T00:11:15.961Z,101145.28
2019-05-26T00:13:46.110Z,101146.88
2019-05-26T00:16:16.301Z,101149.17
2019-05-26T00:18:47.150Z,101142.91
2019-05-26T00:21:17.395Z,101142.32
2019-05-26T00:23:49.872Z,101145.05
2019-05-26T00:26:21.106Z,101146.09
2019-05-26T00:28:51.931Z,101142.02
2019-05-26T00:31:22.122Z,101151.80
2019-05-26T00:33:52.679Z,101153.09
2019-05-26T00:36:24.229Z,101145.66
2019-05-26T00:38:55.370Z,101145.66
2019-05-26T00:41:25.783Z,101142.70
2019-05-26T00:43:56.349Z,101126.80
2019-05-26T00:46:26.731Z,101126.80
2019-05-26T00:48:57.362Z,101125.50
2019-05-26T00:51:27.584Z,101125.50
2019-05-26T00:53:57.765Z,101142.77
2019-05-26T00:56:28.475Z,101136.52
2019-05-26T00:58:59.570Z,101136.52
2019-05-26T01:01:30.770Z,101141.28
2019-05-26T01:04:01.264Z,101137.71
2019-05-26T01:06:31.442Z,101134.94
2019-05-26T01:09:06.022Z,101134.94
2019-05-26T01:11:38.371Z,101130.78
2019-05-26T01:14:08.729Z,101130.78
2019-05-26T01:16:41.200Z,101136.66
2019-05-26T01:19:12.784Z,101136.48
2019-05-26T01:21:43.398Z,101125.67
2019-05-26T01:24:15.683Z,101122.52
2019-05-26T01:26:45.884Z,101122.66
2019-05-26T01:29:16.097Z,101131.50
2019-05-26T01:31:46.745Z,101124.63
2019-05-26T01:34:18.087Z,101129.42
2019-05-26T01:36:49.460Z,101125.39
2019-05-26T01:39:19.625Z,101133.30
2019-05-26T01:41:49.840Z,101126.09
2019-05-26T01:44:20.783Z,101130.25
2019-05-26T01:46:50.975Z,101124.20
2019-05-26T01:49:22.218Z,101134.97
2019-05-26T01:51:53.402Z,101136.84
2019-05-26T01:54:25.385Z,101125.88
2019-05-26T01:56:55.985Z,101132.16
2019-05-26T01:59:26.174Z,101134.34
2019-05-26T02:01:58.763Z,101133.64
2019-05-26T02:04:29.773Z,101133.58
2019-05-26T02:06:59.955Z,101136.00
2019-05-26T02:09:32.234Z,101132.66
2019-05-26T02:12:04.298Z,101135.88
2019-05-26T02:14:35.399Z,101140.17
2019-05-26T02:17:06.768Z,101138.27
2019-05-26T02:19:37.607Z,101136.80
2019-05-26T02:22:07.892Z,101139.59
2019-05-26T02:24:38.072Z,101130.59
2019-05-26T02:27:08.256Z,101124.70
2019-05-26T02:29:38.990Z,101285.49
2019-05-26T02:32:10.981Z,101121.14
2019-05-26T02:34:41.740Z,101126.44
2019-05-26T02:37:13.679Z,101127.31
2019-05-26T02:39:44.853Z,101127.80
2019-05-26T02:42:16.586Z,101131.42
2019-05-26T02:44:46.824Z,101129.28
2019-05-26T02:47:17.005Z,101123.70
2019-05-26T02:49:47.177Z,101128.94
2019-05-26T02:52:17.959Z,101123.27
2019-05-26T02:54:48.140Z,101130.25
2019-05-26T02:57:18.311Z,101124.95
2019-05-26T02:59:49.508Z,101130.94
2019-05-26T03:02:20.218Z,101120.06
2019-05-26T03:04:50.892Z,101120.83
2019-05-26T03:07:23.490Z,101124.42
2019-05-26T03:09:57.057Z,101121.58
2019-05-26T03:12:31.430Z,101120.21
2019-05-26T03:15:03.135Z,101118.00
2019-05-26T03:17:35.465Z,101116.91
2019-05-26T03:20:06.765Z,101118.50
2019-05-26T03:22:41.961Z,101120.23
2019-05-26T03:25:13.248Z,101108.47
2019-05-26T03:27:43.371Z,101113.91
2019-05-26T03:30:13.560Z,101116.09
2019-05-26T03:32:47.173Z,101110.40
2019-05-26T03:35:17.348Z,101111.23
2019-05-26T03:37:53.128Z,101110.83
2019-05-26T03:40:23.282Z,101113.17
2019-05-26T03:42:54.843Z,101112.89
2019-05-26T03:45:33.180Z,101121.93
2019-05-26T03:48:03.476Z,101110.42
2019-05-26T03:50:34.559Z,101113.61
2019-05-26T03:53:07.516Z,101116.31
2019-05-26T03:55:37.814Z,101113.50
2019-05-26T03:58:08.075Z,101114.02
2019-05-26T04:00:38.345Z,101114.05
2019-05-26T04:03:08.940Z,101112.64
2019-05-26T04:05:39.122Z,101110.94
2019-05-26T04:08:09.328Z,101111.12
2019-05-26T04:10:40.882Z,101111.78
2019-05-26T04:13:13.362Z,101109.88
2019-05-26T04:15:43.660Z,101111.76
2019-05-26T04:18:14.932Z,101114.69
2019-05-26T04:20:46.071Z,101116.87
2019-05-26T04:23:16.800Z,101116.47
2019-05-26T04:25:47.815Z,101120.66
2019-05-26T04:28:17.985Z,101116.53
2019-05-26T04:30:48.185Z,101112.75
2019-05-26T04:33:20.876Z,101109.97
2019-05-26T04:35:51.182Z,101113.83
2019-05-26T04:38:22.600Z,101110.66
2019-05-26T04:40:53.865Z,101110.15
2019-05-26T04:43:25.043Z,101113.70
2019-05-26T04:45:55.780Z,101112.40
2019-05-26T04:48:29.091Z,101113.55
2019-05-26T04:50:59.383Z,101118.53
2019-05-26T04:53:29.576Z,101111.81
2019-05-26T04:56:00.608Z,101114.33
2019-05-26T04:58:31.530Z,101113.74
2019-05-26T05:01:03.719Z,101103.36
2019-05-26T05:03:35.008Z,101105.34
2019-05-26T05:06:08.101Z,101107.70
2019-05-26T05:08:38.738Z,101113.05
2019-05-26T05:11:08.919Z,101111.09
2019-05-26T05:13:39.102Z,101109.94
2019-05-26T05:16:11.596Z,101107.76
2019-05-26T05:18:42.205Z,101104.56
2019-05-26T05:21:12.422Z,101100.20
2019-05-26T05:23:42.620Z,101107.51
2019-05-26T05:26:12.914Z,101101.52
2019-05-26T05:28:43.612Z,101106.88
2019-05-26T05:31:14.421Z,101109.59
2019-05-26T05:33:45.772Z,101105.98
2019-05-26T05:36:16.064Z,101107.03
2019-05-26T05:38:47.780Z,101098.67
2019-05-26T05:41:18.089Z,101106.75
2019-05-26T05:43:48.355Z,101103.03
2019-05-26T05:46:18.538Z,101105.13
2019-05-26T05:48:48.697Z,101102.75
2019-05-26T05:51:18.917Z,101097.80
2019-05-26T05:53:49.844Z,101100.94
2019-05-26T05:56:20.128Z,101100.94
2019-05-26T05:58:51.786Z,101095.39
2019-05-26T06:01:21.994Z,101097.60
2019-05-26T06:03:52.575Z,101096.59
2019-05-26T06:06:24.454Z,101090.22
2019-05-26T06:08:54.712Z,101088.22
2019-05-26T06:11:24.878Z,101081.35
2019-05-26T06:13:55.931Z,101087.88
2019-05-26T06:16:26.581Z,101086.95
2019-05-26T06:18:57.134Z,101086.95
2019-05-26T06:21:29.277Z,101083.18
2019-05-26T06:24:00.291Z,101084.91
2019-05-26T06:26:30.985Z,101077.63
2019-05-26T06:29:01.451Z,101072.22
2019-05-26T06:31:32.140Z,101072.46
2019-05-26T06:34:02.790Z,101076.70
2019-05-26T06:36:34.610Z,101075.69
2019-05-26T06:39:08.301Z,101074.48
2019-05-26T06:41:38.509Z,101062.95
2019-05-26T06:44:11.297Z,101070.23
2019-05-26T06:46:41.496Z,101076.70
2019-05-26T06:49:12.119Z,101071.45
2019-05-26T06:51:44.437Z,101079.28
2019-05-26T06:54:15.179Z,101071.84
2019-05-26T06:56:45.700Z,101073.33
2019-05-26T06:59:15.892Z,101070.03
2019-05-26T07:01:47.362Z,101074.03
2019-05-26T07:04:19.384Z,101077.06
2019-05-26T07:06:52.351Z,101073.68
2019-05-26T07:09:22.504Z,101077.58
2019-05-26T07:11:59.126Z,101078.78
2019-05-26T07:14:25.396Z,101079.77
2019-05-26T07:16:56.015Z,101078.02
2019-05-26T07:19:26.204Z,101074.05
2019-05-26T07:21:57.684Z,101080.50
2019-05-26T07:24:29.407Z,101075.33
2019-05-26T07:26:59.885Z,101080.92
2019-05-26T07:29:31.376Z,101073.98
2019-05-26T07:32:10.236Z,101070.89
2019-05-26T07:34:40.535Z,101072.84
2019-05-26T07:37:11.081Z,101067.00
2019-05-26T07:39:46.644Z,101070.00
2019-05-26T07:42:17.773Z,101057.17
2019-05-26T07:44:48.333Z,101064.22
2019-05-26T07:47:18.526Z,101060.66
2019-05-26T07:49:48.709Z,101060.83
2019-05-26T07:52:19.417Z,101060.94
2019-05-26T07:54:50.422Z,101059.75
2019-05-26T07:57:21.755Z,101061.29
2019-05-26T07:59:52.439Z,101066.33
2019-05-26T08:02:23.141Z,101070.24
2019-05-26T08:04:55.759Z,101066.84
2019-05-26T08:07:25.899Z,101067.14
2019-05-26T08:09:56.418Z,101065.88
2019-05-26T08:12:30.453Z,101067.17
2019-05-26T08:15:00.254Z,101065.58
2019-05-26T08:17:33.819Z,101064.64
2019-05-26T08:20:04.563Z,101060.95
2019-05-26T08:22:34.715Z,101059.35
2019-05-26T08:25:06.155Z,101053.13
2019-05-26T08:27:37.267Z,101048.16
2019-05-26T08:30:09.572Z,101056.14
2019-05-26T08:32:39.765Z,101049.45
2019-05-26T08:35:10.710Z,101043.46
2019-05-26T08:37:42.094Z,101042.84
2019-05-26T08:40:20.988Z,101041.33
2019-05-26T08:42:52.452Z,101044.13
2019-05-26T08:45:24.832Z,101043.11
2019-05-26T08:47:55.718Z,101040.67
2019-05-26T08:50:26.385Z,101041.52
2019-05-26T08:52:58.009Z,101038.53
2019-05-26T08:55:29.204Z,101041.09
2019-05-26T08:57:59.817Z,101028.95
2019-05-26T09:00:31.291Z,101022.46
2019-05-26T09:03:01.534Z,101016.01
2019-05-26T09:05:31.658Z,101010.47
2019-05-26T09:08:01.943Z,101007.98
2019-05-26T09:10:32.552Z,101004.46
2019-05-26T09:13:02.822Z,101005.71
2019-05-26T09:15:33.021Z,100998.12
2019-05-26T09:18:03.646Z,101003.67
2019-05-26T09:20:35.178Z,101010.16
2019-05-26T09:23:05.951Z,101006.22
2019-05-26T09:25:36.601Z,101007.18
2019-05-26T09:28:06.788Z,100992.42
2019-05-26T09:30:38.564Z,100991.30
2019-05-26T09:33:09.282Z,100990.81
2019-05-26T09:35:41.962Z,100989.91
2019-05-26T09:38:13.190Z,100981.85
2019-05-26T09:40:44.322Z,100978.66
2019-05-26T09:43:16.690Z,100974.70
2019-05-26T09:45:47.638Z,100983.58
2019-05-26T09:48:17.818Z,100979.53
2019-05-26T09:50:48.193Z,100979.63
2019-05-26T09:53:21.165Z,100976.84
2019-05-26T09:55:57.078Z,100976.70
2019-05-26T09:58:28.164Z,100975.92
2019-05-26T10:01:00.403Z,100975.78
2019-05-26T10:03:31.086Z,100977.89
2019-05-26T10:06:02.281Z,100981.80
2019-05-26T10:08:32.878Z,100977.77
2019-05-26T10:11:03.591Z,100986.64
2019-05-26T10:13:33.771Z,100978.61
2019-05-26T10:16:06.184Z,100981.46
2019-05-26T10:18:36.652Z,100987.36
2019-05-26T10:21:07.775Z,100983.06
2019-05-26T10:23:37.995Z,100991.84
2019-05-26T10:26:10.002Z,100977.16
2019-05-26T10:28:40.517Z,100973.46
2019-05-26T10:31:10.672Z,100976.48
2019-05-26T10:33:42.995Z,100976.52
2019-05-26T10:36:13.680Z,100979.63
2019-05-26T10:38:45.656Z,100975.16
2019-05-26T10:41:16.968Z,100979.04
2019-05-26T10:43:48.022Z,100981.08
2019-05-26T10:46:18.746Z,100972.88
2019-05-26T10:48:51.672Z,100977.87
2019-05-26T10:51:28.069Z,100971.29
2019-05-26T10:53:59.649Z,100975.20
2019-05-26T10:56:30.724Z,100964.62
2019-05-26T10:59:01.023Z,100968.36
2019-05-26T11:01:31.180Z,100959.97
2019-05-26T11:04:02.482Z,100959.40
2019-05-26T11:06:33.125Z,100970.97
2019-05-26T11:09:06.916Z,100968.25
2019-05-26T11:11:37.238Z,100962.56
2019-05-26T11:14:07.895Z,100964.77
2019-05-26T11:16:38.120Z,100960.58
2019-05-26T11:19:08.773Z,100960.51
2019-05-26T11:21:38.974Z,100947.64
2019-05-26T11:24:12.589Z,100949.12
2019-05-26T11:26:42.762Z,100943.59
2019-05-26T11:29:12.934Z,100943.42
2019-05-26T11:31:43.177Z,100938.96
2019-05-26T11:34:13.810Z,100933.48
2019-05-26T11:36:43.999Z,100928.53
2019-05-26T11:39:14.779Z,100929.58
2019-05-26T11:41:54.683Z,100920.38
2019-05-26T11:44:19.629Z,100927.49
2019-05-26T11:46:50.262Z,100920.38
2019-05-26T11:49:20.577Z,100925.39
2019-05-26T11:51:51.897Z,100916.70
2019-05-26T11:54:22.766Z,100917.14
2019-05-26T11:56:55.025Z,100913.20
2019-05-26T11:59:26.941Z,100917.73
2019-05-26T12:01:57.499Z,100912.95
2019-05-26T12:04:29.172Z,100909.80
2019-05-26T12:06:59.811Z,100910.80
2019-05-26T12:09:31.388Z,100906.61
2019-05-26T12:12:01.582Z,100908.55
2019-05-26T12:14:35.627Z,100904.12
2019-05-26T12:17:07.238Z,100898.23
2019-05-26T12:19:37.447Z,100896.87
2019-05-26T12:22:11.271Z,100894.52
2019-05-26T12:24:42.756Z,100887.69
2019-05-26T12:27:13.357Z,100889.44
2019-05-26T12:29:43.577Z,100885.64
2019-05-26T12:32:13.766Z,100883.56
2019-05-26T12:34:44.415Z,100876.14
2019-05-26T12:37:16.193Z,100881.73
2019-05-26T12:39:49.258Z,100876.15
2019-05-26T12:42:19.515Z,100877.66
2019-05-26T12:44:50.239Z,100883.30
2019-05-26T12:47:20.958Z,100877.78
2019-05-26T12:49:51.127Z,100875.04
2019-05-26T12:52:21.665Z,100874.88
2019-05-26T12:54:54.764Z,100869.16
2019-05-26T12:57:25.470Z,100862.79
2019-05-26T12:59:55.638Z,100859.64
2019-05-26T13:02:25.867Z,100867.39
2019-05-26T13:04:55.998Z,100859.88
2019-05-26T13:07:26.598Z,100858.63
2019-05-26T13:09:57.970Z,100850.67
2019-05-26T13:12:31.425Z,100847.80
2019-05-26T13:15:05.980Z,100861.08
2019-05-26T13:17:34.951Z,100852.69
2019-05-26T13:20:06.822Z,100856.91
2019-05-26T13:22:37.470Z,100851.16
2019-05-26T13:25:09.206Z,100849.21
2019-05-26T13:27:39.363Z,100848.27
2019-05-26T13:30:10.763Z,100847.82
2019-05-26T13:32:40.947Z,100842.70
2019-05-26T13:35:13.059Z,100841.20
2019-05-26T13:37:47.422Z,100842.16
2019-05-26T13:40:19.044Z,100838.59
2019-05-26T13:42:50.745Z,100832.83
2019-05-26T13:45:23.134Z,100838.76
2019-05-26T13:47:57.232Z,100840.78
2019-05-26T13:50:29.456Z,100826.61
2019-05-26T13:53:00.587Z,100835.48
2019-05-26T13:55:33.903Z,100831.69
2019-05-26T13:58:05.474Z,100829.67
2019-05-26T14:00:35.670Z,100837.82
2019-05-26T14:03:06.045Z,100826.25
2019-05-26T14:05:36.344Z,100830.46
2019-05-26T14:08:06.981Z,100829.25
2019-05-26T14:10:39.151Z,100809.95
2019-05-26T14:13:09.643Z,100817.30
2019-05-26T14:15:39.795Z,100812.56
2019-05-26T14:18:13.923Z,100811.23
2019-05-26T14:20:44.921Z,100809.06
2019-05-26T14:23:15.182Z,100812.87
2019-05-26T14:25:45.888Z,100805.05
2019-05-26T14:28:20.446Z,100800.84
2019-05-26T14:30:51.716Z,100796.52
2019-05-26T14:33:21.980Z,100796.41
2019-05-26T14:35:52.470Z,100798.03
2019-05-26T14:38:23.182Z,100800.58
2019-05-26T14:40:53.373Z,100803.94
2019-05-26T14:43:24.865Z,100799.34
2019-05-26T14:45:58.245Z,100796.31
2019-05-26T14:48:30.405Z,100795.44
2019-05-26T14:51:00.528Z,100800.73
2019-05-26T14:53:31.965Z,100790.78
2019-05-26T14:56:03.780Z,100790.88
2019-05-26T14:58:34.977Z,100794.20
2019-05-26T15:01:08.544Z,100787.66
2019-05-26T15:03:39.267Z,100789.60
2019-05-26T15:06:09.735Z,100793.11
2019-05-26T15:08:40.411Z,100780.16
2019-05-26T15:11:10.600Z,100774.14
2019-05-26T15:13:42.372Z,100777.39
2019-05-26T15:16:13.056Z,100768.70
2019-05-26T15:18:44.281Z,100766.34
2019-05-26T15:21:17.884Z,100772.60
2019-05-26T15:23:47.914Z,100766.56
2019-05-26T15:26:20.243Z,100768.73
2019-05-26T15:28:52.853Z,100769.81
2019-05-26T15:31:25.612Z,100767.45
2019-05-26T15:33:55.876Z,100760.16
2019-05-26T15:36:27.047Z,100759.17
2019-05-26T15:38:58.778Z,100764.38
2019-05-26T15:41:29.353Z,100757.08
2019-05-26T15:44:04.837Z,100763.03
2019-05-26T15:46:35.307Z,100756.75
2019-05-26T15:49:10.328Z,100741.70
2019-05-26T15:51:41.520Z,100746.38
2019-05-26T15:54:12.270Z,100745.69
2019-05-26T15:56:42.687Z,100754.58
2019-05-26T15:59:13.371Z,100748.45
2019-05-26T16:01:45.830Z,100743.40
2019-05-26T16:04:16.123Z,100745.87
2019-05-26T16:06:46.291Z,100750.17
2019-05-26T16:09:16.473Z,100735.43
2019-05-26T16:11:47.069Z,100733.71
2019-05-26T16:14:17.719Z,100731.24
2019-05-26T16:16:53.790Z,100718.89
2019-05-26T16:19:25.986Z,100719.34
2019-05-26T16:21:56.625Z,100726.06
2019-05-26T16:24:28.349Z,100718.95
2019-05-26T16:27:05.041Z,100714.66
2019-05-26T16:29:32.142Z,100716.13
2019-05-26T16:32:03.192Z,100709.41
2019-05-26T16:34:33.792Z,100711.30
2019-05-26T16:37:04.370Z,100710.10
2019-05-26T16:39:37.359Z,100705.02
2019-05-26T16:42:06.431Z,100700.84
2019-05-26T16:44:38.345Z,100702.46
2019-05-26T16:47:08.545Z,100706.64
2019-05-26T16:49:43.269Z,100702.83
2019-05-26T16:52:17.190Z,100698.09
2019-05-26T16:54:48.776Z,100701.63
2019-05-26T16:57:19.821Z,100687.94
2019-05-26T16:59:50.112Z,100694.42
2019-05-26T17:02:20.279Z,100691.44
2019-05-26T17:04:53.202Z,100687.67
2019-05-26T17:07:28.621Z,100689.36
2019-05-26T17:10:01.563Z,100685.97
2019-05-26T17:12:32.081Z,100683.19
2019-05-26T17:15:02.724Z,100679.14
2019-05-26T17:17:34.714Z,100685.41
2019-05-26T17:20:08.045Z,100678.03
2019-05-26T17:22:38.214Z,100673.98
2019-05-26T17:25:09.616Z,100682.69
2019-05-26T17:27:40.578Z,100674.86
2019-05-26T17:30:12.069Z,100672.04
2019-05-26T17:32:43.734Z,100669.24
2019-05-26T17:35:18.943Z,100668.76
2019-05-26T17:37:50.026Z,100669.80
2019-05-26T17:40:23.719Z,100668.58
2019-05-26T17:42:54.451Z,100665.44
2019-05-26T17:45:26.313Z,100662.22
2019-05-26T17:47:58.066Z,100659.62
2019-05-26T17:50:28.727Z,100655.06
2019-05-26T17:53:02.492Z,100659.44
2019-05-26T17:55:32.679Z,100665.29
2019-05-26T17:58:04.736Z,100659.80
2019-05-26T18:00:35.007Z,100654.88
2019-05-26T18:03:05.247Z,100650.49
2019-05-26T18:05:35.473Z,100652.39
2019-05-26T18:08:06.420Z,100645.93
2019-05-26T18:10:37.191Z,100645.23
2019-05-26T18:13:09.694Z,100642.14
2019-05-26T18:15:42.187Z,100641.67
2019-05-26T18:18:13.001Z,100633.47
2019-05-26T18:20:50.889Z,100632.03
2019-05-26T18:23:22.766Z,100641.02
2019-05-26T18:25:53.255Z,100630.92
2019-05-26T18:28:26.493Z,100623.37
2019-05-26T18:30:57.582Z,100626.72
2019-05-26T18:33:27.815Z,100629.01
2019-05-26T18:35:57.900Z,100623.36
2019-05-26T18:38:28.716Z,100623.64
2019-05-26T18:41:00.115Z,100632.54
2019-05-26T18:43:30.757Z,100627.22
2019-05-26T18:46:03.365Z,100624.86
2019-05-26T18:48:33.638Z,100622.16
2019-05-26T18:51:06.142Z,100622.69
2019-05-26T18:53:36.483Z,100622.58
2019-05-26T18:56:07.392Z,100613.95
2019-05-26T18:58:37.651Z,100611.20
2019-05-26T19:01:07.997Z,100618.48
2019-05-26T19:03:40.709Z,100602.30
2019-05-26T19:06:11.371Z,100607.36
2019-05-26T19:08:42.682Z,100607.01
2019-05-26T19:11:17.684Z,100602.37
2019-05-26T19:13:48.805Z,100599.17
2019-05-26T19:16:20.421Z,100602.63
2019-05-26T19:18:50.539Z,100599.13
2019-05-26T19:21:20.751Z,100603.34
2019-05-26T19:23:50.969Z,100597.09
2019-05-26T19:26:23.229Z,100598.64
2019-05-26T19:28:54.861Z,100606.22
2019-05-26T19:31:25.767Z,100606.63
2019-05-26T19:33:55.980Z,100600.03
2019-05-26T19:36:26.309Z,100609.13
2019-05-26T19:38:58.064Z,100605.22
2019-05-26T19:41:28.426Z,100600.97
2019-05-26T19:44:01.217Z,100600.42
2019-05-26T19:46:32.853Z,100599.30
2019-05-26T19:49:06.578Z,100604.16
2019-05-26T19:51:38.674Z,100608.73
2019-05-26T19:54:09.281Z,100610.78
2019-05-26T19:56:41.132Z,100615.03
2019-05-26T19:59:11.495Z,100621.91
2019-05-26T20:01:43.895Z,100605.51
2019-05-26T20:04:14.132Z,100613.37
2019-05-26T20:06:44.739Z,100618.12
2019-05-26T20:09:22.048Z,100618.22
2019-05-26T20:11:56.841Z,100616.98
2019-05-26T20:14:30.422Z,100617.17
2019-05-26T20:17:01.739Z,100618.34
2019-05-26T20:19:33.011Z,100622.28
2019-05-26T20:22:03.306Z,100618.11
2019-05-26T20:24:33.509Z,100616.45
2019-05-26T20:27:03.776Z,100609.52
2019-05-26T20:29:35.339Z,100614.75
2019-05-26T20:32:09.237Z,100617.14
2019-05-26T20:34:42.734Z,100613.19
2019-05-26T20:37:12.958Z,100618.27
2019-05-26T20:39:43.161Z,100620.77
2019-05-26T20:42:13.928Z,100615.84
2019-05-26T20:44:47.863Z,100623.65
2019-05-26T20:47:19.378Z,100623.37
2019-05-26T20:49:49.635Z,100624.06
2019-05-26T20:52:20.274Z,100617.97
2019-05-26T20:54:50.465Z,100618.34
2019-05-26T20:57:23.936Z,100617.23
2019-05-26T20:59:54.099Z,100617.38
2019-05-26T21:02:29.205Z,100617.34
2019-05-26T21:05:01.279Z,100612.80
2019-05-26T21:07:32.443Z,100611.62
2019-05-26T21:10:02.638Z,100616.91
2019-05-26T21:12:33.513Z,100618.34
2019-05-26T21:15:04.065Z,100614.39
2019-05-26T21:17:37.326Z,100606.58
2019-05-26T21:20:09.993Z,100611.77
2019-05-26T21:22:40.810Z,100610.30
2019-05-26T21:25:22.715Z,100607.20
2019-05-26T21:27:54.573Z,100614.41
2019-05-26T21:30:24.780Z,100611.15
2019-05-26T21:32:58.013Z,100615.02
2019-05-26T21:35:28.206Z,100625.06
2019-05-26T21:37:58.746Z,100617.00
2019-05-26T21:40:30.561Z,100620.28
2019-05-26T21:43:01.193Z,100619.72
2019-05-26T21:45:33.699Z,100617.28
2019-05-26T21:48:05.127Z,100616.55
2019-05-26T21:50:36.212Z,100618.06
2019-05-26T21:53:07.008Z,100617.45
2019-05-26T21:55:38.538Z,100621.41
2019-05-26T21:58:09.580Z,100620.08
2019-05-26T22:00:42.971Z,100614.88
2019-05-26T22:03:14.691Z,100617.70
2019-05-26T22:05:51.420Z,100611.94
2019-05-26T22:08:22.833Z,100615.70
2019-05-26T22:10:54.977Z,100607.83
2019-05-26T22:13:25.570Z,100599.92
2019-05-26T22:15:57.360Z,100601.45
2019-05-26T22:18:29.070Z,100603.63
2019-05-26T22:20:59.273Z,100604.58
2019-05-26T22:23:38.229Z,100594.31
2019-05-26T22:26:08.993Z,100589.63
2019-05-26T22:28:40.013Z,100590.03
2019-05-26T22:31:10.596Z,100591.38
2019-05-26T22:33:43.331Z,100588.10
2019-05-26T22:36:14.030Z,100594.66
2019-05-26T22:38:46.338Z,100585.02
2019-05-26T22:41:16.969Z,100579.68
2019-05-26T22:43:48.546Z,100579.25
2019-05-26T22:46:19.363Z,100582.56
2019-05-26T22:48:52.912Z,100586.97
2019-05-26T22:51:23.400Z,100581.64
2019-05-26T22:53:56.792Z,100582.27
2019-05-26T22:56:28.419Z,100577.11
2019-05-26T22:58:58.703Z,100577.08
2019-05-26T23:01:30.891Z,100571.14
2019-05-26T23:04:03.376Z,100572.95
2019-05-26T23:06:34.965Z,100569.05
2019-05-26T23:09:06.425Z,100564.01
2019-05-26T23:11:36.614Z,100559.78
2019-05-26T23:14:07.741Z,100559.24
2019-05-26T23:16:39.926Z,100554.73
2019-05-26T23:19:19.376Z,100552.66
2019-05-26T23:21:43.253Z,100546.82
2019-05-26T23:24:17.490Z,100539.77
2019-05-26T23:26:49.533Z,100537.38
2019-05-26T23:29:22.238Z,100534.97
2019-05-26T23:31:54.740Z,100529.25
2019-05-26T23:34:28.048Z,100523.95
2019-05-26T23:37:02.876Z,100525.88
2019-05-26T23:39:36.720Z,100522.61
2019-05-26T23:42:07.149Z,100519.94
2019-05-26T23:44:38.769Z,100524.08
2019-05-26T23:47:08.956Z,100517.98
2019-05-26T23:49:42.040Z,100522.34
2019-05-26T23:52:12.247Z,100517.42
2019-05-26T23:54:43.424Z,100515.78
2019-05-26T23:57:13.921Z,100512.80
2019-05-26T23:59:45.225Z,100522.75
